createdAt,value
2022-11-30T01:18:13.873Z,7.53
2022-11-30T06:49:39.315Z,5.20
2022-11-30T07:40:02.536Z,7.17
2022-11-30T09:54:50.617Z,6.93
2022-11-30T10:03:15.389Z,6.60
2022-11-30T10:11:38.050Z,6.20
2022-11-30T10:21:45.456Z,6.23
2022-11-30T10:27:52.286Z,6.40
2022-11-30T10:30:23.713Z,6.10
2022-11-30T10:32:55.010Z,6.27
2022-11-30T10:35:36.325Z,5.83
2022-11-30T10:38:52.255Z,6.10
2022-11-30T10:45:01.518Z,5.77
2022-11-30T10:47:37.283Z,6.03
2022-11-30T10:50:07.407Z,7.60
2022-11-30T10:52:46.136Z,6.03
2022-11-30T10:55:18.781Z,6.77
2022-11-30T10:57:55.395Z,6.93
2022-11-30T11:00:27.037Z,8.23
2022-11-30T11:02:55.965Z,9.60
2022-11-30T11:05:26.278Z,7.23
2022-11-30T11:08:06.935Z,7.43
2022-11-30T11:10:47.129Z,9.23
2022-11-30T11:13:19.220Z,7.37
2022-11-30T11:16:08.421Z,7.87
2022-11-30T11:18:53.113Z,6.87
2022-11-30T11:21:22.802Z,8.03
2022-11-30T11:24:02.300Z,8.07
2022-11-30T11:26:32.228Z,6.87
2022-11-30T11:29:22.498Z,9.17
2022-11-30T11:31:52.345Z,7.17
2022-11-30T11:35:04.192Z,7.27
2022-11-30T11:37:39.700Z,7.70
2022-11-30T11:40:21.964Z,11.90
2022-11-30T11:42:54.477Z,7.83
2022-11-30T11:45:26.527Z,8.10
2022-11-30T11:48:01.391Z,6.57
2022-11-30T11:53:27.424Z,6.80
2022-11-30T11:56:08.957Z,7.40
2022-11-30T11:58:45.969Z,7.17
2022-11-30T12:01:40.403Z,6.60
2022-11-30T12:04:31.299Z,6.10
2022-11-30T12:12:38.979Z,8.07
2022-11-30T12:15:14.062Z,11.67
2022-11-30T12:17:57.315Z,8.13
2022-11-30T12:20:44.873Z,7.90
2022-11-30T12:23:33.245Z,7.83
2022-11-30T12:26:13.865Z,7.77
2022-11-30T12:28:54.543Z,6.50
2022-11-30T12:31:26.761Z,6.33
2022-11-30T12:34:06.203Z,6.20
2022-11-30T12:36:50.137Z,6.67
2022-11-30T12:39:27.280Z,6.30
2022-11-30T12:42:00.823Z,6.10
2022-11-30T12:44:53.103Z,6.97
2022-11-30T12:47:41.166Z,6.23
2022-11-30T12:50:37.510Z,6.47
2022-11-30T12:53:19.720Z,6.67
2022-11-30T12:55:58.094Z,6.07
2022-11-30T12:58:37.372Z,6.30
2022-11-30T13:04:24.570Z,7.23
2022-11-30T13:10:44.386Z,6.13
2022-11-30T13:13:17.828Z,6.37
2022-11-30T13:15:47.782Z,7.17
2022-11-30T13:24:20.819Z,6.40
2022-11-30T13:26:56.053Z,6.30
2022-11-30T13:29:54.248Z,6.90
2022-11-30T13:32:56.278Z,6.43
2022-11-30T13:35:44.889Z,5.77
2022-11-30T13:46:58.164Z,8.70
2022-11-30T13:49:31.771Z,9.83
2022-11-30T13:52:22.210Z,6.60
2022-11-30T13:54:51.340Z,6.03
2022-11-30T13:57:59.892Z,6.23
2022-11-30T14:07:11.784Z,7.07
2022-11-30T14:10:08.225Z,6.33
2022-11-30T14:12:58.786Z,6.70
2022-11-30T14:15:57.209Z,6.80
2022-11-30T14:19:06.024Z,7.47
2022-11-30T14:24:26.532Z,7.07
2022-11-30T14:26:56.551Z,6.80
2022-11-30T14:29:30.148Z,6.40
2022-11-30T14:32:02.422Z,7.30
2022-11-30T14:34:36.270Z,7.00
2022-11-30T14:37:16.322Z,8.80
2022-11-30T14:39:48.588Z,7.67
2022-11-30T14:42:22.856Z,6.80
2022-11-30T14:44:51.743Z,7.47
2022-11-30T14:47:24.541Z,6.23
2022-11-30T14:49:56.475Z,6.83
2022-11-30T14:52:43.809Z,6.07
2022-11-30T14:55:25.465Z,6.57
2022-11-30T14:58:07.630Z,6.93
2022-11-30T15:00:39.783Z,8.30
2022-11-30T15:03:19.819Z,7.53
2022-11-30T15:05:51.543Z,7.07
2022-11-30T15:08:20.763Z,7.40
2022-11-30T15:10:51.508Z,7.47
2022-11-30T15:13:22.797Z,6.23
2022-11-30T15:15:53.213Z,7.03
2022-11-30T15:18:23.029Z,6.73
2022-11-30T15:20:56.034Z,7.20
2022-11-30T15:23:24.744Z,7.03
2022-11-30T15:26:00.088Z,8.40
2022-11-30T15:28:32.097Z,7.50
2022-11-30T15:31:03.655Z,7.80
2022-11-30T15:33:38.462Z,7.63
2022-11-30T15:36:28.226Z,7.10
2022-11-30T15:38:56.799Z,7.07
2022-11-30T15:41:28.488Z,6.70
2022-11-30T15:43:58.815Z,7.60
2022-11-30T15:46:37.724Z,7.30
2022-11-30T15:49:17.613Z,6.60
2022-11-30T15:51:53.218Z,6.23
2022-11-30T15:54:47.139Z,6.90
2022-11-30T15:57:16.801Z,5.87
2022-11-30T15:59:45.853Z,8.20
2022-11-30T16:02:28.147Z,6.73
2022-11-30T16:05:14.157Z,6.57
2022-11-30T16:07:51.288Z,7.10
2022-11-30T16:10:22.757Z,7.27
2022-11-30T16:12:53.833Z,7.10
2022-11-30T16:15:24.846Z,7.93
2022-11-30T16:17:55.018Z,8.50
2022-11-30T16:20:24.379Z,8.87
2022-11-30T16:22:53.037Z,7.93
2022-11-30T16:25:22.912Z,8.60
2022-11-30T16:27:53.387Z,8.43
2022-11-30T16:30:24.499Z,9.33
2022-11-30T16:33:22.477Z,9.13
2022-11-30T16:35:56.787Z,9.03
2022-11-30T16:38:30.125Z,9.57
2022-11-30T16:41:23.052Z,8.60
2022-11-30T17:07:43.532Z,10.83
2022-11-30T17:10:13.997Z,10.67
2022-11-30T17:12:57.530Z,10.60
2022-11-30T17:21:36.935Z,11.27
2022-11-30T17:26:52.828Z,19.33
2022-11-30T17:29:21.035Z,15.00
2022-11-30T17:31:49.199Z,10.87
2022-11-30T17:34:17.472Z,11.43
2022-11-30T17:36:50.890Z,11.50
2022-11-30T17:39:19.740Z,13.17
2022-11-30T17:41:47.946Z,12.03
2022-11-30T17:44:16.255Z,10.03
2022-11-30T17:46:48.139Z,10.80
2022-11-30T17:49:16.639Z,10.80
2022-11-30T17:51:46.409Z,12.10
2022-11-30T17:54:14.937Z,10.33
2022-11-30T17:56:43.607Z,10.33
2022-11-30T17:59:11.825Z,10.20
2022-11-30T18:01:40.527Z,9.27
2022-11-30T18:04:10.427Z,14.40
2022-11-30T18:06:38.871Z,13.03
2022-11-30T18:09:08.735Z,11.73
2022-11-30T18:11:37.595Z,10.73
2022-11-30T18:14:06.155Z,12.73
2022-11-30T18:16:38.426Z,11.97
2022-11-30T18:27:18.807Z,12.00
2022-11-30T18:33:24.205Z,11.60
2022-11-30T20:10:34.625Z,10.70
